sensor_id;sensor_type;location;lat;lon;timestamp;P1;durP1;ratioP1;P2;durP2;ratioP2
4021;SDS011;2025;48.260;16.432;2023-03-29T00:02:20;4.80;;;1.05;;
4021;SDS011;2025;48.260;16.432;2023-03-29T00:04:54;4.07;;;1.27;;
4021;SDS011;2025;48.260;16.432;2023-03-29T00:07:21;4.35;;;0.95;;
4021;SDS011;2025;48.260;16.432;2023-03-29T00:09:51;4.03;;;0.82;;
4021;SDS011;2025;48.260;16.432;2023-03-29T00:12:18;4.38;;;0.82;;
4021;SDS011;2025;48.260;16.432;2023-03-29T00:14:45;4.57;;;0.95;;
4021;SDS011;2025;48.260;16.432;2023-03-29T00:17:13;4.72;;;1.00;;
4021;SDS011;2025;48.260;16.432;2023-03-29T00:19:41;5.13;;;1.30;;
4021;SDS011;2025;48.260;16.432;2023-03-29T00:22:09;4.38;;;1.13;;
4021;SDS011;2025;48.260;16.432;2023-03-29T00:24:36;4.57;;;1.33;;
4021;SDS011;2025;48.260;16.432;2023-03-29T00:27:05;4.93;;;1.17;;
4021;SDS011;2025;48.260;16.432;2023-03-29T00:29:32;3.63;;;1.25;;
4021;SDS011;2025;48.260;16.432;2023-03-29T00:31:59;4.28;;;1.40;;
4021;SDS011;2025;48.260;16.432;2023-03-29T00:34:26;3.47;;;1.30;;
4021;SDS011;2025;48.260;16.432;2023-03-29T00:36:56;3.78;;;1.17;;
4021;SDS011;2025;48.260;16.432;2023-03-29T00:39:24;5.28;;;1.92;;
4021;SDS011;2025;48.260;16.432;2023-03-29T00:41:52;5.60;;;1.20;;
4021;SDS011;2025;48.260;16.432;2023-03-29T00:47:29;4.40;;;1.35;;
4021;SDS011;2025;48.260;16.432;2023-03-29T00:50:01;5.50;;;0.90;;
4021;SDS011;2025;48.260;16.432;2023-03-29T00:52:33;4.57;;;1.52;;
4021;SDS011;2025;48.260;16.432;2023-03-29T00:55:03;5.35;;;1.70;;
4021;SDS011;2025;48.260;16.432;2023-03-29T00:57:35;4.10;;;1.50;;
4021;SDS011;2025;48.260;16.432;2023-03-29T01:00:07;5.15;;;1.60;;
4021;SDS011;2025;48.260;16.432;2023-03-29T01:02:38;7.53;;;2.50;;
4021;SDS011;2025;48.260;16.432;2023-03-29T01:05:08;5.22;;;1.40;;
4021;SDS011;2025;48.260;16.432;2023-03-29T01:10:13;3.60;;;1.15;;
4021;SDS011;2025;48.260;16.432;2023-03-29T01:12:45;8.07;;;1.63;;
4021;SDS011;2025;48.260;16.432;2023-03-29T01:15:17;6.22;;;1.55;;
4021;SDS011;2025;48.260;16.432;2023-03-29T01:17:48;3.85;;;0.98;;
4021;SDS011;2025;48.260;16.432;2023-03-29T01:20:18;7.22;;;2.13;;
4021;SDS011;2025;48.260;16.432;2023-03-29T01:22:57;6.13;;;2.67;;
4021;SDS011;2025;48.260;16.432;2023-03-29T01:25:41;4.25;;;1.65;;
4021;SDS011;2025;48.260;16.432;2023-03-29T01:28:20;7.13;;;1.75;;
4021;SDS011;2025;48.260;16.432;2023-03-29T01:30:53;5.68;;;1.15;;
4021;SDS011;2025;48.260;16.432;2023-03-29T01:33:26;7.28;;;2.38;;
4021;SDS011;2025;48.260;16.432;2023-03-29T01:35:59;5.45;;;1.73;;
4021;SDS011;2025;48.260;16.432;2023-03-29T01:38:33;8.20;;;1.75;;
4021;SDS011;2025;48.260;16.432;2023-03-29T01:41:07;5.32;;;1.17;;
4021;SDS011;2025;48.260;16.432;2023-03-29T01:43:39;4.25;;;1.27;;
4021;SDS011;2025;48.260;16.432;2023-03-29T01:46:13;4.72;;;1.33;;
4021;SDS011;2025;48.260;16.432;2023-03-29T01:48:45;6.50;;;1.63;;
4021;SDS011;2025;48.260;16.432;2023-03-29T01:51:17;5.25;;;1.77;;
4021;SDS011;2025;48.260;16.432;2023-03-29T01:53:52;4.53;;;2.25;;
4021;SDS011;2025;48.260;16.432;2023-03-29T01:56:23;6.65;;;1.75;;
4021;SDS011;2025;48.260;16.432;2023-03-29T01:58:55;5.82;;;1.98;;
4021;SDS011;2025;48.260;16.432;2023-03-29T02:01:27;4.30;;;2.35;;
4021;SDS011;2025;48.260;16.432;2023-03-29T02:04:02;5.97;;;1.88;;
4021;SDS011;2025;48.260;16.432;2023-03-29T02:06:33;6.28;;;1.90;;
4021;SDS011;2025;48.260;16.432;2023-03-29T02:09:03;7.55;;;2.05;;
4021;SDS011;2025;48.260;16.432;2023-03-29T02:11:31;4.57;;;1.55;;
4021;SDS011;2025;48.260;16.432;2023-03-29T02:14:02;6.13;;;1.77;;
4021;SDS011;2025;48.260;16.432;2023-03-29T02:16:33;5.22;;;1.48;;
4021;SDS011;2025;48.260;16.432;2023-03-29T02:19:00;7.15;;;2.10;;
4021;SDS011;2025;48.260;16.432;2023-03-29T02:21:28;4.78;;;1.50;;
4021;SDS011;2025;48.260;16.432;2023-03-29T02:24:01;4.95;;;1.65;;
4021;SDS011;2025;48.260;16.432;2023-03-29T02:26:33;5.35;;;1.70;;
4021;SDS011;2025;48.260;16.432;2023-03-29T02:29:02;4.38;;;1.42;;
4021;SDS011;2025;48.260;16.432;2023-03-29T02:31:31;6.82;;;1.80;;
4021;SDS011;2025;48.260;16.432;2023-03-29T02:34:03;6.78;;;1.92;;
4021;SDS011;2025;48.260;16.432;2023-03-29T02:36:35;5.40;;;1.45;;
4021;SDS011;2025;48.260;16.432;2023-03-29T02:39:07;5.00;;;2.10;;
4021;SDS011;2025;48.260;16.432;2023-03-29T02:41:37;4.88;;;1.60;;
4021;SDS011;2025;48.260;16.432;2023-03-29T02:44:09;5.50;;;2.38;;
4021;SDS011;2025;48.260;16.432;2023-03-29T02:46:39;8.43;;;2.70;;
4021;SDS011;2025;48.260;16.432;2023-03-29T02:49:07;5.15;;;1.38;;
4021;SDS011;2025;48.260;16.432;2023-03-29T02:51:34;7.35;;;2.15;;
4021;SDS011;2025;48.260;16.432;2023-03-29T02:54:04;7.28;;;2.17;;
4021;SDS011;2025;48.260;16.432;2023-03-29T02:56:39;5.68;;;2.22;;
4021;SDS011;2025;48.260;16.432;2023-03-29T02:59:10;6.20;;;1.67;;
4021;SDS011;2025;48.260;16.432;2023-03-29T03:01:37;5.25;;;1.92;;
4021;SDS011;2025;48.260;16.432;2023-03-29T03:04:06;7.03;;;1.92;;
4021;SDS011;2025;48.260;16.432;2023-03-29T03:06:34;8.50;;;2.20;;
4021;SDS011;2025;48.260;16.432;2023-03-29T03:09:02;4.50;;;1.60;;
4021;SDS011;2025;48.260;16.432;2023-03-29T03:11:30;6.20;;;2.10;;
4021;SDS011;2025;48.260;16.432;2023-03-29T03:13:57;6.70;;;2.05;;
4021;SDS011;2025;48.260;16.432;2023-03-29T03:16:25;7.00;;;2.72;;
4021;SDS011;2025;48.260;16.432;2023-03-29T03:18:52;8.48;;;1.95;;
4021;SDS011;2025;48.260;16.432;2023-03-29T03:21:19;4.43;;;1.55;;
4021;SDS011;2025;48.260;16.432;2023-03-29T03:23:46;8.35;;;2.10;;
4021;SDS011;2025;48.260;16.432;2023-03-29T03:26:14;8.45;;;2.60;;
4021;SDS011;2025;48.260;16.432;2023-03-29T03:28:42;7.47;;;2.13;;
4021;SDS011;2025;48.260;16.432;2023-03-29T03:31:09;3.85;;;1.02;;
4021;SDS011;2025;48.260;16.432;2023-03-29T03:33:39;5.97;;;2.15;;
4021;SDS011;2025;48.260;16.432;2023-03-29T03:36:07;7.30;;;2.70;;
4021;SDS011;2025;48.260;16.432;2023-03-29T03:38:34;5.22;;;1.92;;
4021;SDS011;2025;48.260;16.432;2023-03-29T03:41:02;5.32;;;1.70;;
4021;SDS011;2025;48.260;16.432;2023-03-29T03:43:30;4.32;;;1.52;;
4021;SDS011;2025;48.260;16.432;2023-03-29T03:45:58;5.78;;;1.80;;
4021;SDS011;2025;48.260;16.432;2023-03-29T03:48:25;6.40;;;1.77;;
4021;SDS011;2025;48.260;16.432;2023-03-29T03:50:54;4.32;;;1.52;;
4021;SDS011;2025;48.260;16.432;2023-03-29T03:53:23;6.15;;;1.98;;
4021;SDS011;2025;48.260;16.432;2023-03-29T03:55:52;6.00;;;1.67;;
4021;SDS011;2025;48.260;16.432;2023-03-29T03:58:20;7.82;;;2.30;;
4021;SDS011;2025;48.260;16.432;2023-03-29T04:00:48;5.80;;;1.90;;
4021;SDS011;2025;48.260;16.432;2023-03-29T04:03:16;4.88;;;1.70;;
4021;SDS011;2025;48.260;16.432;2023-03-29T04:05:43;7.10;;;2.17;;
4021;SDS011;2025;48.260;16.432;2023-03-29T04:08:13;4.88;;;2.25;;
4021;SDS011;2025;48.260;16.432;2023-03-29T04:10:40;5.60;;;2.20;;
4021;SDS011;2025;48.260;16.432;2023-03-29T04:13:07;5.85;;;1.73;;
4021;SDS011;2025;48.260;16.432;2023-03-29T04:15:34;7.82;;;2.45;;
4021;SDS011;2025;48.260;16.432;2023-03-29T04:18:02;5.50;;;2.85;;
4021;SDS011;2025;48.260;16.432;2023-03-29T04:20:30;4.43;;;1.90;;
4021;SDS011;2025;48.260;16.432;2023-03-29T04:22:57;7.43;;;2.13;;
4021;SDS011;2025;48.260;16.432;2023-03-29T04:27:52;5.03;;;1.65;;
4021;SDS011;2025;48.260;16.432;2023-03-29T04:32:46;6.53;;;2.33;;
4021;SDS011;2025;48.260;16.432;2023-03-29T04:35:13;6.80;;;2.42;;
4021;SDS011;2025;48.260;16.432;2023-03-29T04:37:40;9.23;;;2.58;;
4021;SDS011;2025;48.260;16.432;2023-03-29T04:40:07;8.18;;;2.95;;
4021;SDS011;2025;48.260;16.432;2023-03-29T04:42:39;5.88;;;1.55;;
4021;SDS011;2025;48.260;16.432;2023-03-29T04:45:08;9.88;;;2.17;;
4021;SDS011;2025;48.260;16.432;2023-03-29T04:47:37;4.72;;;1.85;;
4021;SDS011;2025;48.260;16.432;2023-03-29T04:50:05;6.30;;;1.58;;
4021;SDS011;2025;48.260;16.432;2023-03-29T04:52:32;7.60;;;2.80;;
4021;SDS011;2025;48.260;16.432;2023-03-29T04:55:00;9.00;;;2.22;;
4021;SDS011;2025;48.260;16.432;2023-03-29T04:57:28;6.43;;;2.03;;
4021;SDS011;2025;48.260;16.432;2023-03-29T04:59:57;6.45;;;3.00;;
4021;SDS011;2025;48.260;16.432;2023-03-29T05:02:23;6.45;;;2.83;;
4021;SDS011;2025;48.260;16.432;2023-03-29T05:04:51;9.35;;;2.78;;
4021;SDS011;2025;48.260;16.432;2023-03-29T05:07:18;7.57;;;2.53;;
4021;SDS011;2025;48.260;16.432;2023-03-29T05:09:45;8.05;;;2.40;;
4021;SDS011;2025;48.260;16.432;2023-03-29T05:14:38;5.22;;;2.20;;
4021;SDS011;2025;48.260;16.432;2023-03-29T05:17:07;8.52;;;2.40;;
4021;SDS011;2025;48.260;16.432;2023-03-29T05:19:34;5.72;;;1.95;;
4021;SDS011;2025;48.260;16.432;2023-03-29T05:22:02;6.68;;;3.42;;
4021;SDS011;2025;48.260;16.432;2023-03-29T05:24:29;7.97;;;2.35;;
4021;SDS011;2025;48.260;16.432;2023-03-29T05:26:56;8.05;;;2.20;;
4021;SDS011;2025;48.260;16.432;2023-03-29T05:31:50;6.90;;;2.15;;
4021;SDS011;2025;48.260;16.432;2023-03-29T05:34:19;7.90;;;2.70;;
4021;SDS011;2025;48.260;16.432;2023-03-29T05:36:46;5.47;;;2.17;;
4021;SDS011;2025;48.260;16.432;2023-03-29T05:41:40;5.70;;;2.55;;
4021;SDS011;2025;48.260;16.432;2023-03-29T05:46:33;12.77;;;2.20;;
4021;SDS011;2025;48.260;16.432;2023-03-29T05:49:01;7.00;;;2.05;;
4021;SDS011;2025;48.260;16.432;2023-03-29T05:51:29;8.55;;;3.00;;
4021;SDS011;2025;48.260;16.432;2023-03-29T05:53:57;6.80;;;2.47;;
4021;SDS011;2025;48.260;16.432;2023-03-29T05:58:52;6.00;;;2.20;;
4021;SDS011;2025;48.260;16.432;2023-03-29T06:01:21;7.03;;;3.45;;
4021;SDS011;2025;48.260;16.432;2023-03-29T06:03:48;7.03;;;2.30;;
4021;SDS011;2025;48.260;16.432;2023-03-29T06:08:44;8.20;;;2.22;;
4021;SDS011;2025;48.260;16.432;2023-03-29T06:11:12;9.25;;;2.42;;
4021;SDS011;2025;48.260;16.432;2023-03-29T06:13:39;7.55;;;2.33;;
4021;SDS011;2025;48.260;16.432;2023-03-29T06:16:07;8.20;;;2.70;;
4021;SDS011;2025;48.260;16.432;2023-03-29T06:18:37;8.45;;;2.30;;
4021;SDS011;2025;48.260;16.432;2023-03-29T06:21:05;8.07;;;3.17;;
4021;SDS011;2025;48.260;16.432;2023-03-29T06:23:33;7.45;;;3.08;;
4021;SDS011;2025;48.260;16.432;2023-03-29T06:26:02;10.27;;;3.58;;
4021;SDS011;2025;48.260;16.432;2023-03-29T06:28:29;9.48;;;3.53;;
4021;SDS011;2025;48.260;16.432;2023-03-29T06:30:57;10.13;;;3.30;;
4021;SDS011;2025;48.260;16.432;2023-03-29T06:33:26;10.48;;;2.80;;
4021;SDS011;2025;48.260;16.432;2023-03-29T06:35:54;6.22;;;1.67;;
4021;SDS011;2025;48.260;16.432;2023-03-29T06:38:21;8.98;;;2.50;;
4021;SDS011;2025;48.260;16.432;2023-03-29T06:40:48;10.25;;;2.42;;
4021;SDS011;2025;48.260;16.432;2023-03-29T06:43:18;5.88;;;1.98;;
4021;SDS011;2025;48.260;16.432;2023-03-29T06:45:45;5.40;;;1.67;;
4021;SDS011;2025;48.260;16.432;2023-03-29T06:48:12;8.32;;;1.90;;
4021;SDS011;2025;48.260;16.432;2023-03-29T06:50:40;4.40;;;1.55;;
4021;SDS011;2025;48.260;16.432;2023-03-29T06:53:07;10.57;;;1.50;;
4021;SDS011;2025;48.260;16.432;2023-03-29T06:55:34;6.40;;;1.95;;
4021;SDS011;2025;48.260;16.432;2023-03-29T06:58:01;7.07;;;1.67;;
4021;SDS011;2025;48.260;16.432;2023-03-29T07:00:29;6.70;;;2.03;;
4021;SDS011;2025;48.260;16.432;2023-03-29T07:03:02;8.90;;;1.77;;
4021;SDS011;2025;48.260;16.432;2023-03-29T07:05:31;8.05;;;1.48;;
4021;SDS011;2025;48.260;16.432;2023-03-29T07:08:00;9.20;;;1.92;;
4021;SDS011;2025;48.260;16.432;2023-03-29T07:10:37;11.50;;;3.47;;
4021;SDS011;2025;48.260;16.432;2023-03-29T07:13:06;7.90;;;2.47;;
4021;SDS011;2025;48.260;16.432;2023-03-29T07:15:37;9.48;;;2.00;;
4021;SDS011;2025;48.260;16.432;2023-03-29T07:18:05;9.30;;;3.05;;
4021;SDS011;2025;48.260;16.432;2023-03-29T07:20:34;5.57;;;1.95;;
4021;SDS011;2025;48.260;16.432;2023-03-29T07:23:02;9.32;;;2.25;;
4021;SDS011;2025;48.260;16.432;2023-03-29T07:25:29;9.38;;;2.22;;
4021;SDS011;2025;48.260;16.432;2023-03-29T07:27:58;10.70;;;2.22;;
4021;SDS011;2025;48.260;16.432;2023-03-29T07:30:25;10.07;;;2.40;;
4021;SDS011;2025;48.260;16.432;2023-03-29T07:32:55;9.40;;;2.78;;
4021;SDS011;2025;48.260;16.432;2023-03-29T07:35:23;6.28;;;2.08;;
4021;SDS011;2025;48.260;16.432;2023-03-29T07:37:52;8.35;;;1.80;;
4021;SDS011;2025;48.260;16.432;2023-03-29T07:40:20;7.82;;;1.75;;
4021;SDS011;2025;48.260;16.432;2023-03-29T07:42:49;5.90;;;1.20;;
4021;SDS011;2025;48.260;16.432;2023-03-29T07:45:18;6.15;;;1.38;;
4021;SDS011;2025;48.260;16.432;2023-03-29T07:47:47;5.55;;;1.02;;
4021;SDS011;2025;48.260;16.432;2023-03-29T07:50:16;4.40;;;0.85;;
4021;SDS011;2025;48.260;16.432;2023-03-29T07:52:43;3.88;;;1.08;;
4021;SDS011;2025;48.260;16.432;2023-03-29T07:55:11;8.35;;;1.55;;
4021;SDS011;2025;48.260;16.432;2023-03-29T07:57:38;6.55;;;1.63;;
4021;SDS011;2025;48.260;16.432;2023-03-29T08:00:08;4.75;;;1.38;;
4021;SDS011;2025;48.260;16.432;2023-03-29T08:02:39;5.70;;;1.80;;
4021;SDS011;2025;48.260;16.432;2023-03-29T08:05:06;8.52;;;1.92;;
4021;SDS011;2025;48.260;16.432;2023-03-29T08:07:35;5.85;;;1.15;;
4021;SDS011;2025;48.260;16.432;2023-03-29T08:10:02;6.80;;;2.03;;
4021;SDS011;2025;48.260;16.432;2023-03-29T08:12:30;7.97;;;1.88;;
4021;SDS011;2025;48.260;16.432;2023-03-29T08:14:57;5.22;;;1.08;;
4021;SDS011;2025;48.260;16.432;2023-03-29T08:17:24;6.68;;;1.38;;
4021;SDS011;2025;48.260;16.432;2023-03-29T08:19:51;5.05;;;1.02;;
4021;SDS011;2025;48.260;16.432;2023-03-29T08:22:18;6.40;;;1.30;;
4021;SDS011;2025;48.260;16.432;2023-03-29T08:24:47;8.73;;;1.17;;
4021;SDS011;2025;48.260;16.432;2023-03-29T08:27:14;4.28;;;1.08;;
4021;SDS011;2025;48.260;16.432;2023-03-29T08:29:41;4.88;;;1.17;;
4021;SDS011;2025;48.260;16.432;2023-03-29T08:32:08;8.75;;;1.33;;
4021;SDS011;2025;48.260;16.432;2023-03-29T08:34:35;6.88;;;1.45;;
4021;SDS011;2025;48.260;16.432;2023-03-29T08:37:02;7.43;;;1.25;;
4021;SDS011;2025;48.260;16.432;2023-03-29T08:39:30;7.38;;;1.40;;
4021;SDS011;2025;48.260;16.432;2023-03-29T08:42:11;4.93;;;1.25;;
4021;SDS011;2025;48.260;16.432;2023-03-29T08:44:52;10.30;;;1.50;;
4021;SDS011;2025;48.260;16.432;2023-03-29T08:47:28;6.20;;;1.40;;
4021;SDS011;2025;48.260;16.432;2023-03-29T08:50:02;7.55;;;1.23;;
4021;SDS011;2025;48.260;16.432;2023-03-29T08:52:31;6.50;;;1.13;;
4021;SDS011;2025;48.260;16.432;2023-03-29T08:55:01;5.18;;;1.30;;
4021;SDS011;2025;48.260;16.432;2023-03-29T08:57:37;8.73;;;1.60;;
4021;SDS011;2025;48.260;16.432;2023-03-29T09:00:11;8.35;;;1.48;;
4021;SDS011;2025;48.260;16.432;2023-03-29T09:02:46;5.75;;;1.08;;
4021;SDS011;2025;48.260;16.432;2023-03-29T09:05:17;6.65;;;1.38;;
4021;SDS011;2025;48.260;16.432;2023-03-29T09:07:49;5.00;;;1.05;;
4021;SDS011;2025;48.260;16.432;2023-03-29T09:10:17;6.22;;;0.70;;
4021;SDS011;2025;48.260;16.432;2023-03-29T09:12:52;6.70;;;0.52;;
4021;SDS011;2025;48.260;16.432;2023-03-29T09:15:36;6.68;;;1.05;;
4021;SDS011;2025;48.260;16.432;2023-03-29T09:18:10;4.65;;;0.93;;
4021;SDS011;2025;48.260;16.432;2023-03-29T09:20:46;6.60;;;1.52;;
4021;SDS011;2025;48.260;16.432;2023-03-29T09:23:32;8.15;;;1.50;;
4021;SDS011;2025;48.260;16.432;2023-03-29T09:26:15;5.53;;;0.63;;
4021;SDS011;2025;48.260;16.432;2023-03-29T09:28:52;5.38;;;1.38;;
4021;SDS011;2025;48.260;16.432;2023-03-29T09:31:29;3.40;;;0.82;;
4021;SDS011;2025;48.260;16.432;2023-03-29T09:34:01;6.30;;;0.98;;
4021;SDS011;2025;48.260;16.432;2023-03-29T09:36:35;8.13;;;1.52;;
4021;SDS011;2025;48.260;16.432;2023-03-29T09:39:10;4.60;;;0.73;;
4021;SDS011;2025;48.260;16.432;2023-03-29T09:41:41;3.92;;;0.80;;
4021;SDS011;2025;48.260;16.432;2023-03-29T09:46:42;5.35;;;1.38;;
4021;SDS011;2025;48.260;16.432;2023-03-29T09:49:13;4.15;;;0.98;;
4021;SDS011;2025;48.260;16.432;2023-03-29T09:51:46;6.75;;;0.63;;
4021;SDS011;2025;48.260;16.432;2023-03-29T09:54:15;6.07;;;1.20;;
4021;SDS011;2025;48.260;16.432;2023-03-29T09:56:42;5.43;;;1.08;;
4021;SDS011;2025;48.260;16.432;2023-03-29T09:59:09;3.53;;;0.90;;
4021;SDS011;2025;48.260;16.432;2023-03-29T10:01:39;4.60;;;0.70;;
4021;SDS011;2025;48.260;16.432;2023-03-29T10:04:09;4.78;;;0.80;;
4021;SDS011;2025;48.260;16.432;2023-03-29T10:06:40;7.18;;;1.25;;
4021;SDS011;2025;48.260;16.432;2023-03-29T10:09:14;5.80;;;1.17;;
4021;SDS011;2025;48.260;16.432;2023-03-29T10:11:47;5.97;;;0.85;;
4021;SDS011;2025;48.260;16.432;2023-03-29T10:14:17;5.55;;;1.00;;
4021;SDS011;2025;48.260;16.432;2023-03-29T10:16:53;3.45;;;1.08;;
4021;SDS011;2025;48.260;16.432;2023-03-29T10:19:21;4.00;;;0.80;;
4021;SDS011;2025;48.260;16.432;2023-03-29T10:21:52;3.45;;;0.82;;
4021;SDS011;2025;48.260;16.432;2023-03-29T10:24:20;4.35;;;0.93;;
4021;SDS011;2025;48.260;16.432;2023-03-29T10:26:49;6.28;;;0.65;;
4021;SDS011;2025;48.260;16.432;2023-03-29T10:29:20;4.03;;;0.88;;
4021;SDS011;2025;48.260;16.432;2023-03-29T10:31:49;3.55;;;0.75;;
4021;SDS011;2025;48.260;16.432;2023-03-29T10:34:17;4.03;;;1.05;;
4021;SDS011;2025;48.260;16.432;2023-03-29T10:36:45;5.28;;;1.25;;
4021;SDS011;2025;48.260;16.432;2023-03-29T10:39:18;3.05;;;0.60;;
4021;SDS011;2025;48.260;16.432;2023-03-29T10:41:56;4.43;;;0.75;;
4021;SDS011;2025;48.260;16.432;2023-03-29T10:44:26;6.25;;;1.15;;
4021;SDS011;2025;48.260;16.432;2023-03-29T10:47:06;4.43;;;1.42;;
4021;SDS011;2025;48.260;16.432;2023-03-29T10:49:42;4.25;;;0.90;;
4021;SDS011;2025;48.260;16.432;2023-03-29T10:52:11;3.67;;;1.00;;
4021;SDS011;2025;48.260;16.432;2023-03-29T10:54:39;4.40;;;1.35;;
4021;SDS011;2025;48.260;16.432;2023-03-29T10:57:07;5.38;;;0.77;;
4021;SDS011;2025;48.260;16.432;2023-03-29T10:59:38;4.15;;;0.80;;
4021;SDS011;2025;48.260;16.432;2023-03-29T11:02:23;4.82;;;1.00;;
4021;SDS011;2025;48.260;16.432;2023-03-29T11:05:03;5.13;;;0.73;;
4021;SDS011;2025;48.260;16.432;2023-03-29T11:07:39;5.55;;;1.25;;
4021;SDS011;2025;48.260;16.432;2023-03-29T11:10:26;4.43;;;0.73;;
4021;SDS011;2025;48.260;16.432;2023-03-29T11:13:00;4.60;;;0.82;;
4021;SDS011;2025;48.260;16.432;2023-03-29T11:15:35;3.83;;;0.90;;
4021;SDS011;2025;48.260;16.432;2023-03-29T11:18:17;6.60;;;0.95;;
4021;SDS011;2025;48.260;16.432;2023-03-29T11:21:07;7.35;;;0.90;;
4021;SDS011;2025;48.260;16.432;2023-03-29T11:23:44;8.65;;;1.20;;
4021;SDS011;2025;48.260;16.432;2023-03-29T11:26:18;5.38;;;1.15;;
4021;SDS011;2025;48.260;16.432;2023-03-29T11:28:53;13.60;;;1.20;;
4021;SDS011;2025;48.260;16.432;2023-03-29T11:31:28;4.65;;;0.85;;
4021;SDS011;2025;48.260;16.432;2023-03-29T11:34:18;4.25;;;0.80;;
4021;SDS011;2025;48.260;16.432;2023-03-29T11:36:54;19.10;;;2.90;;
4021;SDS011;2025;48.260;16.432;2023-03-29T11:39:29;6.07;;;0.68;;
4021;SDS011;2025;48.260;16.432;2023-03-29T11:42:08;3.80;;;0.70;;
4021;SDS011;2025;48.260;16.432;2023-03-29T11:44:41;3.17;;;0.73;;
4021;SDS011;2025;48.260;16.432;2023-03-29T11:47:11;3.67;;;0.40;;
4021;SDS011;2025;48.260;16.432;2023-03-29T11:49:44;3.33;;;0.63;;
4021;SDS011;2025;48.260;16.432;2023-03-29T11:52:17;4.15;;;0.55;;
4021;SDS011;2025;48.260;16.432;2023-03-29T11:54:49;4.03;;;1.02;;
4021;SDS011;2025;48.260;16.432;2023-03-29T11:57:22;3.53;;;0.70;;
4021;SDS011;2025;48.260;16.432;2023-03-29T11:59:55;7.85;;;0.80;;
4021;SDS011;2025;48.260;16.432;2023-03-29T12:02:30;2.95;;;0.73;;
4021;SDS011;2025;48.260;16.432;2023-03-29T12:05:04;3.45;;;0.70;;
4021;SDS011;2025;48.260;16.432;2023-03-29T12:07:38;4.10;;;0.65;;
4021;SDS011;2025;48.260;16.432;2023-03-29T12:10:15;3.33;;;0.70;;
4021;SDS011;2025;48.260;16.432;2023-03-29T12:12:45;4.30;;;0.90;;
4021;SDS011;2025;48.260;16.432;2023-03-29T12:15:21;4.10;;;0.60;;
4021;SDS011;2025;48.260;16.432;2023-03-29T12:17:54;4.45;;;0.38;;
4021;SDS011;2025;48.260;16.432;2023-03-29T12:20:29;4.80;;;0.95;;
4021;SDS011;2025;48.260;16.432;2023-03-29T12:23:00;5.40;;;0.60;;
4021;SDS011;2025;48.260;16.432;2023-03-29T12:25:29;3.72;;;0.30;;
4021;SDS011;2025;48.260;16.432;2023-03-29T12:28:04;4.07;;;0.98;;
4021;SDS011;2025;48.260;16.432;2023-03-29T12:30:45;2.50;;;0.52;;
4021;SDS011;2025;48.260;16.432;2023-03-29T12:33:32;3.25;;;0.47;;
4021;SDS011;2025;48.260;16.432;2023-03-29T12:36:23;3.47;;;0.90;;
4021;SDS011;2025;48.260;16.432;2023-03-29T12:39:09;3.60;;;0.70;;
4021;SDS011;2025;48.260;16.432;2023-03-29T12:41:39;3.40;;;0.70;;
4021;SDS011;2025;48.260;16.432;2023-03-29T12:44:10;3.58;;;0.55;;
4021;SDS011;2025;48.260;16.432;2023-03-29T12:46:39;2.63;;;0.55;;
4021;SDS011;2025;48.260;16.432;2023-03-29T12:49:08;3.85;;;0.98;;
4021;SDS011;2025;48.260;16.432;2023-03-29T12:51:40;4.88;;;0.50;;
4021;SDS011;2025;48.260;16.432;2023-03-29T12:54:10;4.50;;;0.40;;
4021;SDS011;2025;48.260;16.432;2023-03-29T12:56:40;3.75;;;1.02;;
4021;SDS011;2025;48.260;16.432;2023-03-29T12:59:23;2.72;;;0.45;;
4021;SDS011;2025;48.260;16.432;2023-03-29T13:01:56;4.82;;;1.08;;
4021;SDS011;2025;48.260;16.432;2023-03-29T13:04:37;6.18;;;1.52;;
4021;SDS011;2025;48.260;16.432;2023-03-29T13:07:26;5.22;;;1.83;;
4021;SDS011;2025;48.260;16.432;2023-03-29T13:09:55;4.63;;;0.98;;
4021;SDS011;2025;48.260;16.432;2023-03-29T13:12:23;6.00;;;1.27;;
4021;SDS011;2025;48.260;16.432;2023-03-29T13:14:53;3.38;;;0.82;;
4021;SDS011;2025;48.260;16.432;2023-03-29T13:17:24;4.65;;;0.60;;
4021;SDS011;2025;48.260;16.432;2023-03-29T13:20:02;7.72;;;2.67;;
4021;SDS011;2025;48.260;16.432;2023-03-29T13:22:46;3.50;;;0.80;;
4021;SDS011;2025;48.260;16.432;2023-03-29T13:25:33;5.53;;;0.90;;
4021;SDS011;2025;48.260;16.432;2023-03-29T13:28:11;3.42;;;0.68;;
4021;SDS011;2025;48.260;16.432;2023-03-29T13:30:50;2.85;;;0.70;;
4021;SDS011;2025;48.260;16.432;2023-03-29T13:33:35;3.70;;;0.73;;
4021;SDS011;2025;48.260;16.432;2023-03-29T13:36:13;4.60;;;0.93;;
4021;SDS011;2025;48.260;16.432;2023-03-29T13:38:47;4.30;;;0.85;;
4021;SDS011;2025;48.260;16.432;2023-03-29T13:41:27;4.80;;;0.85;;
4021;SDS011;2025;48.260;16.432;2023-03-29T13:43:58;3.30;;;0.90;;
4021;SDS011;2025;48.260;16.432;2023-03-29T13:46:35;3.67;;;1.10;;
4021;SDS011;2025;48.260;16.432;2023-03-29T13:49:11;2.90;;;0.50;;
4021;SDS011;2025;48.260;16.432;2023-03-29T13:51:57;3.58;;;0.60;;
4021;SDS011;2025;48.260;16.432;2023-03-29T13:54:33;2.72;;;0.60;;
4021;SDS011;2025;48.260;16.432;2023-03-29T13:57:04;2.90;;;0.43;;
4021;SDS011;2025;48.260;16.432;2023-03-29T13:59:38;4.70;;;0.98;;
4021;SDS011;2025;48.260;16.432;2023-03-29T14:02:18;3.97;;;0.90;;
4021;SDS011;2025;48.260;16.432;2023-03-29T14:04:51;2.83;;;0.50;;
4021;SDS011;2025;48.260;16.432;2023-03-29T14:07:20;3.63;;;0.80;;
4021;SDS011;2025;48.260;16.432;2023-03-29T14:09:52;4.10;;;0.77;;
4021;SDS011;2025;48.260;16.432;2023-03-29T14:12:22;2.90;;;0.88;;
4021;SDS011;2025;48.260;16.432;2023-03-29T14:14:49;5.03;;;0.75;;
4021;SDS011;2025;48.260;16.432;2023-03-29T14:17:23;3.63;;;0.70;;
4021;SDS011;2025;48.260;16.432;2023-03-29T14:19:50;2.50;;;0.50;;
4021;SDS011;2025;48.260;16.432;2023-03-29T14:22:18;3.13;;;0.70;;
4021;SDS011;2025;48.260;16.432;2023-03-29T14:24:49;7.63;;;1.48;;
4021;SDS011;2025;48.260;16.432;2023-03-29T14:27:21;3.47;;;0.52;;
4021;SDS011;2025;48.260;16.432;2023-03-29T14:29:49;5.15;;;0.80;;
4021;SDS011;2025;48.260;16.432;2023-03-29T14:32:18;3.00;;;1.02;;
4021;SDS011;2025;48.260;16.432;2023-03-29T14:34:52;2.72;;;0.77;;
4021;SDS011;2025;48.260;16.432;2023-03-29T14:37:20;3.33;;;0.82;;
4021;SDS011;2025;48.260;16.432;2023-03-29T14:39:53;5.80;;;0.65;;
4021;SDS011;2025;48.260;16.432;2023-03-29T14:42:23;3.42;;;1.05;;
4021;SDS011;2025;48.260;16.432;2023-03-29T14:44:55;2.30;;;0.30;;
4021;SDS011;2025;48.260;16.432;2023-03-29T14:47:25;2.63;;;0.43;;
4021;SDS011;2025;48.260;16.432;2023-03-29T14:49:55;3.00;;;0.70;;
4021;SDS011;2025;48.260;16.432;2023-03-29T14:52:25;4.43;;;0.95;;
4021;SDS011;2025;48.260;16.432;2023-03-29T14:54:55;3.45;;;0.50;;
4021;SDS011;2025;48.260;16.432;2023-03-29T14:57:25;4.22;;;0.52;;
4021;SDS011;2025;48.260;16.432;2023-03-29T14:59:54;3.67;;;0.75;;
4021;SDS011;2025;48.260;16.432;2023-03-29T15:02:26;3.03;;;0.40;;
4021;SDS011;2025;48.260;16.432;2023-03-29T15:04:58;3.70;;;0.50;;
4021;SDS011;2025;48.260;16.432;2023-03-29T15:07:29;3.42;;;0.52;;
4021;SDS011;2025;48.260;16.432;2023-03-29T15:09:59;3.00;;;0.57;;
4021;SDS011;2025;48.260;16.432;2023-03-29T15:12:28;2.65;;;0.50;;
4021;SDS011;2025;48.260;16.432;2023-03-29T15:14:55;2.40;;;0.40;;
4021;SDS011;2025;48.260;16.432;2023-03-29T15:17:30;3.20;;;0.40;;
4021;SDS011;2025;48.260;16.432;2023-03-29T15:20:03;4.55;;;0.52;;
4021;SDS011;2025;48.260;16.432;2023-03-29T15:22:38;2.00;;;0.20;;
4021;SDS011;2025;48.260;16.432;2023-03-29T15:25:19;3.22;;;0.50;;
4021;SDS011;2025;48.260;16.432;2023-03-29T15:27:48;2.75;;;0.47;;
4021;SDS011;2025;48.260;16.432;2023-03-29T15:30:19;3.38;;;0.63;;
4021;SDS011;2025;48.260;16.432;2023-03-29T15:33:06;3.13;;;0.68;;
4021;SDS011;2025;48.260;16.432;2023-03-29T15:35:47;3.25;;;0.60;;
4021;SDS011;2025;48.260;16.432;2023-03-29T15:38:16;9.15;;;2.92;;
4021;SDS011;2025;48.260;16.432;2023-03-29T15:40:45;5.10;;;2.05;;
4021;SDS011;2025;48.260;16.432;2023-03-29T15:43:13;5.07;;;2.47;;
4021;SDS011;2025;48.260;16.432;2023-03-29T15:45:40;6.40;;;1.02;;
4021;SDS011;2025;48.260;16.432;2023-03-29T15:48:12;3.38;;;0.63;;
4021;SDS011;2025;48.260;16.432;2023-03-29T15:50:41;3.45;;;0.88;;
4021;SDS011;2025;48.260;16.432;2023-03-29T15:53:09;4.97;;;2.28;;